TimePDT,TemperatureF,Dew PointF,Humidity,Sea Level PressureIn,VisibilityMPH,Wind Direction,Wind SpeedMPH,Gust SpeedMPH,PrecipitationIn,Events,Conditions,WindDirDegrees,DateUTC
12:56 AM,44.1,41.0,89,30.07,5.0,Calm,Calm,-,N/A,,Partly Cloudy,0,2012-10-10 07:56:00
1:56 AM,44.1,41.0,89,30.05,3.0,Calm,Calm,-,N/A,,Scattered Clouds,0,2012-10-10 08:56:00
2:56 AM,43.0,39.9,89,30.05,1.0,Calm,Calm,-,N/A,,Partly Cloudy,0,2012-10-10 09:56:00
3:56 AM,37.0,36.0,96,30.04,2.0,ESE,3.5,-,N/A,,Mostly Cloudy,120,2012-10-10 10:56:00
4:56 AM,44.1,42.1,93,30.04,5.0,SE,3.5,-,N/A,,Overcast,130,2012-10-10 11:56:00
5:56 AM,48.0,46.0,93,30.04,6.0,SW,4.6,-,N/A,,Overcast,220,2012-10-10 12:56:00
6:56 AM,48.0,45.0,89,30.05,6.0,WSW,5.8,-,N/A,,Overcast,240,2012-10-10 13:56:00
7:56 AM,48.9,46.0,90,30.05,7.0,South,5.8,-,N/A,,Overcast,170,2012-10-10 14:56:00
8:56 AM,48.9,46.0,90,30.05,6.0,WSW,5.8,-,N/A,,Overcast,250,2012-10-10 15:56:00
9:25 AM,48.2,46.4,93,30.04,3.0,WSW,3.5,-,N/A,,Overcast,250,2012-10-10 16:25:00
9:56 AM,48.9,46.0,90,30.06,2.5,West,3.5,-,N/A,,Overcast,270,2012-10-10 16:56:00
10:07 AM,48.2,46.4,93,30.05,0.2,Calm,Calm,-,N/A,,Overcast,0,2012-10-10 17:07:00
10:18 AM,48.2,46.4,93,30.05,0.2,WSW,3.5,-,N/A,,Overcast,250,2012-10-10 17:18:00
10:33 AM,50.0,48.2,94,30.04,2.5,South,5.8,-,N/A,,Overcast,180,2012-10-10 17:33:00
10:43 AM,48.2,46.4,93,30.05,4.0,WSW,4.6,-,N/A,,Overcast,250,2012-10-10 17:43:00
10:56 AM,48.9,46.9,93,30.06,5.0,West,4.6,-,N/A,,Overcast,260,2012-10-10 17:56:00
11:26 AM,50.0,46.4,87,30.05,3.0,NW,4.6,-,N/A,,Overcast,320,2012-10-10 18:26:00
11:30 AM,48.2,46.4,93,30.05,1.0,Calm,Calm,-,N/A,,Overcast,0,2012-10-10 18:30:00
11:45 AM,48.2,46.4,93,30.05,1.0,Calm,Calm,-,N/A,,Overcast,0,2012-10-10 18:45:00
11:56 AM,48.9,46.9,93,30.06,0.5,West,4.6,-,N/A,,Overcast,280,2012-10-10 18:56:00
12:21 PM,48.2,48.2,100,30.04,0.5,West,3.5,-,N/A,,Overcast,260,2012-10-10 19:21:00
12:56 PM,50.0,46.9,89,30.05,6.0,West,4.6,-,N/A,,Overcast,270,2012-10-10 19:56:00
1:56 PM,50.0,46.9,89,30.04,8.0,WNW,3.5,-,N/A,,Overcast,290,2012-10-10 20:56:00
2:56 PM,50.0,46.0,86,30.03,6.0,West,3.5,-,N/A,,Overcast,270,2012-10-10 21:56:00
3:56 PM,50.0,46.0,86,30.03,6.0,WSW,4.6,-,N/A,,Overcast,240,2012-10-10 22:56:00
4:56 PM,48.9,46.0,90,30.02,6.0,Calm,Calm,-,N/A,,Overcast,0,2012-10-10 23:56:00
5:56 PM,48.9,46.0,90,30.01,6.0,Calm,Calm,-,N/A,,Overcast,0,2012-10-11 00:56:00
6:56 PM,48.9,45.0,86,30.01,8.0,Calm,Calm,-,N/A,,Overcast,0,2012-10-11 01:56:00
7:56 PM,48.9,45.0,86,30.02,7.0,West,3.5,-,N/A,,Overcast,280,2012-10-11 02:56:00
8:56 PM,48.9,45.0,86,30.03,7.0,North,4.6,-,N/A,,Overcast,10,2012-10-11 03:56:00
9:56 PM,48.9,45.0,86,30.03,8.0,Variable,4.6,-,N/A,,Overcast,0,2012-10-11 04:56:00
10:56 PM,48.9,45.0,86,30.04,6.0,Calm,Calm,-,N/A,,Overcast,0,2012-10-11 05:56:00
11:56 PM,48.9,45.0,86,30.03,6.0,Calm,Calm,-,N/A,,Overcast,0,2012-10-11 06:56:00